Time;durP1;ratioP1;P1;durP2;ratioP2;P2;SDS_P1;SDS_P2;PMS_P1;PMS_P2;Temp;Humidity;BMP_temperature;BMP_pressure;BME280_temperature;BME280_humidity;BME280_pressure;Samples;Min_cycle;Max_cycle;Signal;HPM_P1;HPM_P2
2022/12/05 00:01:49;;;;;;;33.03;17.63;;;;;;;6.05;60.84;101665.16;5056124;28;20045;-66
2022/12/05 00:04:17;;;;;;;34.70;19.25;;;;;;;6.06;60.94;101659.63;5054355;28;20053;-66
2022/12/05 00:06:45;;;;;;;30.13;17.02;;;;;;;6.05;61.02;101657.16;5059782;28;20100;-67
2022/12/05 00:09:14;;;;;;;31.60;18.13;;;;;;;6.04;60.94;101653.66;5061550;28;20152;-66
2022/12/05 00:11:44;;;;;;;32.67;18.02;;;;;;;6.03;61.07;101670.66;5060206;28;20049;-66
2022/12/05 00:14:13;;;;;;;31.33;19.13;;;;;;;6.04;61.30;101660.81;5049362;28;20140;-66
2022/12/05 00:16:42;;;;;;;31.35;17.73;;;;;;;6.03;61.27;101665.31;5058116;28;20202;-66
2022/12/05 00:19:14;;;;;;;31.48;17.25;;;;;;;6.04;61.59;101661.66;5055678;28;20060;-66
2022/12/05 00:21:42;;;;;;;31.05;17.63;;;;;;;6.03;61.46;101667.16;5055753;28;20128;-66
2022/12/05 00:24:13;;;;;;;30.70;17.75;;;;;;;6.02;61.27;101666.31;5057881;28;20112;-66
2022/12/05 00:26:42;;;;;;;31.80;18.02;;;;;;;5.97;61.60;101665.19;5050696;28;20052;-66
2022/12/05 00:29:11;;;;;;;32.80;17.50;;;;;;;5.97;61.51;101662.50;5060001;28;20048;-66
2022/12/05 00:31:39;;;;;;;31.83;18.83;;;;;;;6.03;61.49;101668.00;5055600;28;20114;-66
2022/12/05 00:34:07;;;;;;;33.80;17.70;;;;;;;6.03;61.38;101669.81;5055741;28;20069;-66
2022/12/05 00:36:37;;;;;;;30.63;18.60;;;;;;;6.00;61.41;101664.84;5056060;28;20056;-66
2022/12/05 00:39:07;;;;;;;37.58;18.20;;;;;;;6.01;61.35;101666.50;5066242;28;20049;-66
2022/12/05 00:41:35;;;;;;;38.53;19.90;;;;;;;6.02;61.53;101665.50;5058710;28;20109;-66
2022/12/05 00:44:04;;;;;;;30.67;17.27;;;;;;;6.04;61.41;101656.31;5063372;28;20053;-66
2022/12/05 00:46:33;;;;;;;29.27;17.92;;;;;;;6.02;61.74;101661.00;5056187;28;20164;-66
2022/12/05 00:49:02;;;;;;;27.75;16.30;;;;;;;6.03;61.65;101654.66;5060662;28;20045;-66
2022/12/05 00:51:31;;;;;;;36.53;19.17;;;;;;;6.03;61.62;101660.00;5052362;28;20068;-66
2022/12/05 00:54:02;;;;;;;33.22;17.65;;;;;;;6.02;61.60;101660.16;5061122;28;20053;-66
2022/12/05 00:56:31;;;;;;;34.15;18.13;;;;;;;6.00;61.85;101656.84;5058276;28;20044;-66
2022/12/05 00:59:01;;;;;;;33.83;18.48;;;;;;;5.98;61.82;101662.34;5061103;28;20049;-66
2022/12/05 01:01:31;;;;;;;33.50;18.23;;;;;;;6.00;61.62;101660.34;5056863;28;20052;-66
2022/12/05 01:04:01;;;;;;;33.30;17.58;;;;;;;6.01;61.85;101655.81;5064129;28;20053;-66
2022/12/05 01:06:29;;;;;;;33.22;19.08;;;;;;;6.03;61.82;101662.66;5061509;28;20068;-66
2022/12/05 01:08:57;;;;;;;31.33;18.00;;;;;;;6.00;62.14;101659.50;5062701;28;20049;-66
2022/12/05 01:11:27;;;;;;;34.22;17.30;;;;;;;6.01;61.64;101671.84;5064499;28;20053;-66
2022/12/05 01:13:56;;;;;;;36.25;18.55;;;;;;;5.99;61.71;101676.50;5060997;28;20049;-67
2022/12/05 01:16:26;;;;;;;35.00;18.70;;;;;;;6.00;61.96;101670.16;5060419;28;20393;-67
2022/12/05 01:18:55;;;;;;;34.08;19.27;;;;;;;6.00;61.73;101680.84;5050943;28;20085;-67
2022/12/05 01:21:23;;;;;;;35.38;18.70;;;;;;;5.96;61.80;101664.34;5061697;28;20421;-67
2022/12/05 01:23:51;;;;;;;32.92;19.05;;;;;;;5.92;61.85;101663.03;5062562;28;20077;-67
2022/12/05 01:26:21;;;;;;;30.92;17.48;;;;;;;5.97;62.02;101671.34;5063115;28;20076;-66
2022/12/05 01:28:51;;;;;;;32.03;17.95;;;;;;;5.99;62.04;101680.00;5065627;28;20041;-66
2022/12/05 01:31:24;;;;;;;37.72;20.30;;;;;;;6.01;62.09;101679.84;5064978;28;20053;-67
2022/12/05 01:33:54;;;;;;;33.80;18.50;;;;;;;6.00;62.00;101680.84;5056058;28;20056;-66
2022/12/05 01:36:22;;;;;;;37.30;19.02;;;;;;;6.01;62.38;101683.34;5051363;28;20048;-67
2022/12/05 01:38:51;;;;;;;39.88;17.52;;;;;;;5.93;62.20;101679.88;5065122;28;20065;-66
2022/12/05 01:41:21;;;;;;;36.55;18.70;;;;;;;5.97;62.35;101681.19;5063246;28;20049;-65
2022/12/05 01:43:56;;;;;;;36.05;18.98;;;;;;;6.00;62.22;101691.50;5058376;28;20041;-65
2022/12/05 01:46:26;;;;;;;35.90;20.02;;;;;;;6.00;62.28;101688.84;5056320;28;20450;-66
2022/12/05 01:49:00;;;;;;;36.65;19.08;;;;;;;6.01;62.21;101690.50;5060809;28;20049;-66
2022/12/05 01:51:28;;;;;;;33.67;18.55;;;;;;;6.02;62.08;101690.34;5055646;28;20049;-66
2022/12/05 01:53:56;;;;;;;35.25;19.67;;;;;;;6.00;62.36;101695.03;5059715;28;20121;-66
2022/12/05 01:56:24;;;;;;;35.33;18.65;;;;;;;6.01;62.21;101695.84;5062281;28;20055;-66
2022/12/05 01:58:55;;;;;;;34.90;18.83;;;;;;;6.02;62.22;101701.00;5053996;28;20053;-65
2022/12/05 02:01:23;;;;;;;31.20;18.25;;;;;;;6.01;62.33;101695.84;5057361;28;20041;-65
2022/12/05 02:03:54;;;;;;;36.30;19.55;;;;;;;6.04;62.10;101699.00;5056371;28;20050;-65
2022/12/05 02:06:23;;;;;;;36.65;20.35;;;;;;;6.03;62.33;101694.69;5060680;28;20049;-65
2022/12/05 02:08:52;;;;;;;34.72;19.10;;;;;;;5.99;62.45;101697.84;5060181;28;20049;-65
2022/12/05 02:11:21;;;;;;;35.25;18.15;;;;;;;6.01;62.23;101695.84;5062520;28;20049;-66
2022/12/05 02:14:14;;;;;;;31.42;17.67;;;;;;;5.98;62.52;101697.03;5053216;28;20058;-65
2022/12/05 02:16:56;;;;;;;33.25;18.48;;;;;;;5.97;62.78;101706.03;5061242;28;20085;-67
2022/12/05 02:19:50;;;;;;;37.17;18.80;;;;;;;5.98;62.80;101702.34;5060993;28;20045;-66
2022/12/05 02:22:36;;;;;;;33.35;18.17;;;;;;;6.00;62.63;101700.34;5055080;28;20045;-66
2022/12/05 02:25:21;;;;;;;38.90;19.13;;;;;;;5.98;62.60;101696.19;5053282;28;20502;-66
2022/12/05 02:28:12;;;;;;;35.65;19.00;;;;;;;5.99;62.86;101698.69;5055752;28;20109;-66
2022/12/05 02:30:48;;;;;;;32.90;18.08;;;;;;;5.98;62.83;101696.19;5060574;28;20314;-66
2022/12/05 02:33:22;;;;;;;34.90;19.38;;;;;;;5.98;62.74;101694.34;5050135;28;20380;-66
2022/12/05 02:36:01;;;;;;;33.55;18.80;;;;;;;5.97;62.89;101695.34;5058979;28;20060;-67
2022/12/05 02:38:36;;;;;;;30.80;18.02;;;;;;;5.98;62.83;101694.34;5064343;28;20045;-67
2022/12/05 02:41:14;;;;;;;31.40;17.65;;;;;;;6.00;62.59;101691.50;5059353;28;20048;-66
2022/12/05 02:43:48;;;;;;;36.10;18.55;;;;;;;5.99;62.90;101689.84;5052031;28;20060;-67
2022/12/05 02:46:22;;;;;;;32.05;19.00;;;;;;;5.99;62.83;101689.84;5059502;28;20451;-67
2022/12/05 02:48:54;;;;;;;32.70;18.08;;;;;;;5.99;62.90;101689.84;5053369;28;20041;-66
2022/12/05 02:51:25;;;;;;;35.30;18.27;;;;;;;5.97;63.05;101686.53;5061435;28;20051;-66
2022/12/05 02:53:56;;;;;;;32.42;18.00;;;;;;;6.00;63.11;101692.34;5056487;28;20140;-66
2022/12/05 02:56:26;;;;;;;35.38;19.77;;;;;;;6.01;62.96;101693.19;5061657;28;20059;-66
2022/12/05 02:58:55;;;;;;;33.33;20.23;;;;;;;5.99;63.25;101697.84;5060809;28;20136;-66
2022/12/05 03:01:28;;;;;;;32.78;19.67;;;;;;;6.00;63.14;101699.53;5060625;28;20112;-66
2022/12/05 03:03:58;;;;;;;33.13;18.52;;;;;;;5.99;63.26;101698.69;5062362;28;20053;-66
2022/12/05 03:06:29;;;;;;;33.20;19.05;;;;;;;6.00;63.34;101699.53;5053093;28;20292;-66
2022/12/05 03:09:02;;;;;;;34.08;18.52;;;;;;;6.00;63.32;101694.19;5051122;28;20056;-66
2022/12/05 03:11:35;;;;;;;34.03;19.08;;;;;;;5.98;63.45;101697.03;5060434;28;20109;-66
2022/12/05 03:14:07;;;;;;;34.65;18.33;;;;;;;5.97;63.53;101700.69;5049412;28;20084;-67
2022/12/05 03:16:41;;;;;;;33.83;19.08;;;;;;;5.98;63.50;101699.69;5057083;28;20124;-66
2022/12/05 03:19:12;;;;;;;31.90;17.38;;;;;;;5.97;63.22;101700.69;5057966;28;20067;-66
2022/12/05 03:21:48;;;;;;;32.67;18.83;;;;;;;5.97;63.37;101699.84;5049192;28;20060;-66
2022/12/05 03:24:16;;;;;;;31.65;19.05;;;;;;;5.98;63.37;101697.03;5061367;28;20052;-66
2022/12/05 03:26:52;;;;;;;37.35;19.45;;;;;;;6.00;63.36;101696.84;5062133;28;20044;-66
2022/12/05 03:29:25;;;;;;;29.90;18.77;;;;;;;5.99;63.32;101700.53;5055142;28;20158;-66
2022/12/05 03:32:05;;;;;;;35.03;18.90;;;;;;;5.94;63.57;101700.19;5059974;28;20064;-66
2022/12/05 03:34:42;;;;;;;34.53;19.90;;;;;;;5.94;63.52;101698.38;5046207;28;20046;-66
2022/12/05 03:37:16;;;;;;;37.05;19.75;;;;;;;5.94;63.80;101690.38;5056767;28;20498;-66
2022/12/05 03:39:48;;;;;;;36.47;19.08;;;;;;;5.95;63.52;101693.88;5056395;28;20041;-66
2022/12/05 03:42:20;;;;;;;36.10;19.85;;;;;;;5.95;63.68;101686.69;5052682;28;20164;-66
2022/12/05 03:44:52;;;;;;;33.65;19.33;;;;;;;5.96;63.48;101684.84;5061117;28;20049;-66
2022/12/05 03:47:28;;;;;;;38.38;19.77;;;;;;;5.95;63.49;101686.69;5061890;28;20052;-66
2022/12/05 03:50:01;;;;;;;33.58;19.42;;;;;;;5.93;63.97;101682.53;5058313;28;20063;-66
2022/12/05 03:52:32;;;;;;;35.13;19.45;;;;;;;5.92;63.75;101691.53;5054029;28;20048;-66
2022/12/05 03:55:26;;;;;;;36.60;20.02;;;;;;;5.93;63.90;101688.69;5062835;28;20106;-66
2022/12/05 03:57:59;;;;;;;39.22;20.55;;;;;;;5.92;63.83;101691.53;5049605;28;20053;-66
2022/12/05 04:00:30;;;;;;;36.05;20.02;;;;;;;5.94;63.70;101695.69;5058343;28;20047;-66
2022/12/05 04:03:04;;;;;;;34.70;18.65;;;;;;;5.96;63.76;101699.03;5063385;28;20068;-66
2022/12/05 04:05:39;;;;;;;35.17;20.13;;;;;;;5.97;63.58;101698.03;5060940;28;20041;-65
2022/12/05 04:08:12;;;;;;;35.88;19.88;;;;;;;5.96;64.08;101690.19;5056244;28;20516;-66
2022/12/05 04:10:48;;;;;;;39.03;21.55;;;;;;;5.95;63.77;101696.53;5053121;28;20057;-66
2022/12/05 04:13:19;;;;;;;36.17;19.52;;;;;;;5.96;63.62;101699.03;5060401;28;20139;-66
2022/12/05 04:18:46;;;;;;;38.10;20.13;;;;;;;5.95;63.68;101699.19;5055867;28;20102;-65
2022/12/05 04:26:53;;;;;;;38.15;20.30;;;;;;;5.92;64.00;101705.72;5055345;28;20045;-65
2022/12/05 04:29:27;;;;;;;37.25;18.77;;;;;;;5.93;64.05;101707.38;5056639;28;20045;-66
2022/12/05 04:31:59;;;;;;;35.20;18.77;;;;;;;5.96;63.74;101703.53;5065151;28;20052;-66
2022/12/05 04:34:31;;;;;;;37.15;20.10;;;;;;;5.94;63.99;101706.38;5058642;28;20064;-65
2022/12/05 04:37:03;;;;;;;34.97;19.13;;;;;;;5.95;63.85;101710.69;5059204;28;20105;-65
2022/12/05 04:39:37;;;;;;;40.17;21.05;;;;;;;5.98;63.78;101709.53;5063739;28;20052;-66
2022/12/05 04:42:09;;;;;;;34.92;18.33;;;;;;;5.96;63.54;101701.69;5059681;28;20049;-66
2022/12/05 04:44:42;;;;;;;36.08;18.27;;;;;;;5.96;63.84;101704.38;5061591;28;20486;-66
2022/12/05 04:47:14;;;;;;;34.58;18.98;;;;;;;5.95;63.67;101705.38;5058383;28;20124;-66
2022/12/05 04:49:46;;;;;;;36.65;20.63;;;;;;;5.91;64.14;101706.72;5061671;28;20191;-66
2022/12/05 04:52:22;;;;;;;40.50;20.33;;;;;;;5.90;63.97;101713.06;5056083;28;20045;-66
2022/12/05 04:54:55;;;;;;;33.45;19.77;;;;;;;5.91;63.99;101721.88;5065407;28;20533;-66
2022/12/05 04:57:27;;;;;;;33.53;18.60;;;;;;;5.92;63.99;101711.03;5056925;28;20068;-66
2022/12/05 04:59:55;;;;;;;33.13;18.15;;;;;;;5.94;64.15;101722.38;5065121;28;20041;-66
2022/12/05 05:02:31;;;;;;;33.58;19.50;;;;;;;5.92;63.91;101727.06;5064273;28;20045;-67
2022/12/05 05:05:03;;;;;;;37.90;19.05;;;;;;;5.93;64.21;101728.72;5062091;28;20045;-66
2022/12/05 05:07:43;;;;;;;34.65;19.30;;;;;;;5.95;63.99;101728.53;5057314;28;20063;-67
2022/12/05 05:10:15;;;;;;;32.85;18.52;;;;;;;5.96;64.16;101730.22;5058318;28;20046;-66
2022/12/05 05:12:42;;;;;;;30.23;17.58;;;;;;;5.96;64.00;101716.88;5048456;28;20088;-66
2022/12/05 05:15:10;;;;;;;33.53;19.05;;;;;;;5.95;63.95;101734.72;5057470;28;20049;-66
2022/12/05 05:17:38;;;;;;;30.15;18.75;;;;;;;5.95;63.82;101720.53;5049122;28;20049;-66
2022/12/05 05:20:24;;;;;;;31.92;18.42;;;;;;;5.98;64.19;101715.69;5054522;28;20064;-66
2022/12/05 05:22:53;;;;;;;31.25;17.90;;;;;;;5.92;63.97;101727.06;5057396;28;20100;-66
2022/12/05 05:25:21;;;;;;;28.38;17.35;;;;;;;5.93;63.86;101720.72;5058798;28;20093;-66
2022/12/05 05:27:50;;;;;;;31.15;17.58;;;;;;;5.93;64.05;101734.06;5055775;28;20045;-66
2022/12/05 05:30:19;;;;;;;29.63;18.20;;;;;;;5.94;64.09;101734.88;5063806;28;20052;-66
2022/12/05 05:32:47;;;;;;;32.75;18.77;;;;;;;5.91;64.43;101730.72;5065394;28;20075;-66
2022/12/05 05:35:16;;;;;;;29.67;18.02;;;;;;;5.91;64.17;101727.22;5067731;28;20113;-66
2022/12/05 05:37:44;;;;;;;33.17;18.42;;;;;;;5.94;64.04;101734.88;5064514;28;20153;-66
2022/12/05 05:40:13;;;;;;;32.15;16.83;;;;;;;5.93;64.14;101733.22;5057090;28;20045;-66
2022/12/05 05:42:45;;;;;;;30.15;18.80;;;;;;;5.94;64.31;101733.06;5056763;28;20128;-66
2022/12/05 05:45:14;;;;;;;32.17;18.17;;;;;;;5.94;64.01;101734.88;5064599;28;20139;-66
2022/12/05 05:47:42;;;;;;;31.08;17.80;;;;;;;5.94;64.60;101745.56;5057806;28;20053;-66
2022/12/05 05:50:11;;;;;;;28.05;17.63;;;;;;;5.88;64.35;101736.38;5058846;28;20059;-66
2022/12/05 05:52:46;;;;;;;31.25;18.15;;;;;;;5.95;64.17;101737.38;5051573;28;20045;-66
2022/12/05 05:55:13;;;;;;;34.70;18.77;;;;;;;5.92;64.55;101737.72;5058256;28;20053;-66
2022/12/05 05:57:41;;;;;;;33.25;18.80;;;;;;;5.91;64.41;101744.06;5063926;28;20044;-66
2022/12/05 06:00:10;;;;;;;31.38;18.42;;;;;;;5.92;64.48;101744.91;5057712;28;20053;-65
2022/12/05 06:02:38;;;;;;;31.60;17.75;;;;;;;5.93;64.39;101754.56;5055438;28;20044;-65
2022/12/05 06:05:07;;;;;;;31.52;18.52;;;;;;;5.94;64.23;101743.72;5058136;28;20151;-65
2022/12/05 06:07:35;;;;;;;28.25;16.35;;;;;;;5.94;64.76;101735.72;5062505;28;20045;-67
2022/12/05 06:10:05;;;;;;;33.65;17.98;;;;;;;5.93;64.54;101743.88;5055852;28;20075;-65
2022/12/05 06:12:33;;;;;;;30.85;17.70;;;;;;;5.92;64.57;101755.56;5061322;28;20060;-65
2022/12/05 06:15:00;;;;;;;34.00;19.05;;;;;;;5.91;64.63;101749.41;5061505;28;20132;-65
2022/12/05 06:17:28;;;;;;;31.40;17.15;;;;;;;5.92;64.48;101750.22;5059106;28;20053;-66
2022/12/05 06:19:56;;;;;;;28.80;17.05;;;;;;;5.93;64.63;101755.41;5057550;28;20052;-69
2022/12/05 06:22:24;;;;;;;27.48;17.15;;;;;;;5.91;64.49;101753.91;5052941;28;20049;-69
2022/12/05 06:24:51;;;;;;;29.50;17.10;;;;;;;5.87;65.04;101748.03;5057590;28;20054;-66
2022/12/05 06:27:20;;;;;;;28.67;16.90;;;;;;;5.91;64.95;101753.91;5064323;28;20454;-66
2022/12/05 06:29:48;;;;;;;29.33;17.50;;;;;;;5.90;64.85;101753.06;5059124;28;20494;-66
2022/12/05 06:32:16;;;;;;;28.80;16.95;;;;;;;5.93;64.57;101752.72;5057625;28;20475;-66
2022/12/05 06:34:44;;;;;;;29.33;16.98;;;;;;;5.93;64.94;101752.72;5056373;28;20060;-66
2022/12/05 06:37:12;;;;;;;27.75;16.98;;;;;;;5.93;64.60;101751.91;5052973;28;20041;-68
2022/12/05 06:39:40;;;;;;;27.00;16.08;;;;;;;6.01;64.35;101751.88;5053422;28;20041;-66
2022/12/05 06:42:07;;;;;;;27.70;16.38;;;;;;;6.14;64.23;101749.53;5061634;28;20091;-66
2022/12/05 06:44:37;;;;;;;28.52;16.25;;;;;;;6.28;63.48;101754.16;5061670;28;20049;-66
2022/12/05 06:47:04;;;;;;;33.03;16.48;;;;;;;6.47;63.32;101753.75;5059570;28;20087;-66
2022/12/05 06:49:33;;;;;;;28.70;16.67;;;;;;;6.65;62.68;101753.50;5061665;28;20053;-66
2022/12/05 06:52:04;;;;;;;26.60;15.00;;;;;;;6.83;62.21;101756.75;5057540;28;20478;-65
2022/12/05 06:54:32;;;;;;;28.90;17.63;;;;;;;6.99;61.50;101753.13;5055100;28;20131;-66
2022/12/05 06:57:00;;;;;;;25.70;16.23;;;;;;;7.14;60.92;101753.22;5054970;28;20046;-66
2022/12/05 06:59:27;;;;;;;26.90;16.42;;;;;;;7.28;60.30;101752.44;5050565;28;20053;-66
2022/12/05 07:01:56;;;;;;;27.25;15.63;;;;;;;7.31;60.58;101753.94;5063747;28;20116;-65
2022/12/05 07:04:24;;;;;;;30.52;17.92;;;;;;;7.24;60.67;101756.50;5049793;28;20053;-66
2022/12/05 07:06:53;;;;;;;26.63;16.35;;;;;;;7.14;60.69;101766.59;5057071;28;20055;-66
2022/12/05 07:09:44;;;;;;;27.10;16.00;;;;;;;6.98;61.41;101767.50;4695960;28;10000287;-66
2022/12/05 07:12:10;;;;;;;25.67;15.82;;;;;;;6.84;61.89;101774.47;5057166;28;20083;-66
2022/12/05 07:14:38;;;;;;;28.10;16.52;;;;;;;6.74;62.56;101770.34;5058170;28;20049;-69
2022/12/05 07:17:16;;;;;;;28.58;17.13;;;;;;;6.65;62.44;101774.06;5055339;28;20128;-68
2022/12/05 07:19:44;;;;;;;29.95;17.63;;;;;;;6.60;63.17;101781.75;5059555;28;20068;-67
2022/12/05 07:22:12;;;;;;;28.52;16.10;;;;;;;6.57;63.15;101788.25;5049543;28;20147;-67
2022/12/05 07:24:43;;;;;;;27.45;15.52;;;;;;;6.53;63.36;101794.97;5059153;28;20108;-66
2022/12/05 07:27:11;;;;;;;27.42;15.77;;;;;;;6.48;63.40;101792.81;5055198;28;20105;-67
2022/12/05 07:29:38;;;;;;;28.55;15.88;;;;;;;6.43;63.37;101795.16;5061775;28;20318;-67
2022/12/05 07:32:07;;;;;;;28.55;16.90;;;;;;;6.40;63.45;101800.00;5059957;28;20406;-67
2022/12/05 07:34:37;;;;;;;29.70;16.83;;;;;;;6.37;63.42;101805.69;5043739;28;20053;-67
2022/12/05 07:37:05;;;;;;;26.00;15.23;;;;;;;6.28;63.72;101802.19;5044844;28;20068;-67
2022/12/05 07:39:33;;;;;;;30.08;16.48;;;;;;;6.31;63.97;101803.69;5061664;28;20075;-66
2022/12/05 07:42:01;;;;;;;28.67;16.40;;;;;;;6.29;64.13;101805.69;5061404;28;20059;-67
2022/12/05 07:44:28;;;;;;;24.10;15.45;;;;;;;6.30;63.88;101799.38;5052189;28;20071;-67
2022/12/05 07:46:57;;;;;;;24.67;15.32;;;;;;;6.27;63.94;101802.38;5055689;28;20073;-68
2022/12/05 07:49:24;;;;;;;25.70;15.70;;;;;;;6.23;64.36;101796.53;5050838;28;20060;-66
2022/12/05 07:51:54;;;;;;;27.85;15.25;;;;;;;6.20;64.73;101795.03;5055631;28;20053;-67
2022/12/05 07:54:21;;;;;;;26.60;15.38;;;;;;;6.20;64.47;101807.56;5056795;28;20056;-67
2022/12/05 07:56:49;;;;;;;28.23;15.70;;;;;;;6.19;64.38;101805.88;5061912;28;20056;-67
2022/12/05 07:59:17;;;;;;;24.70;15.02;;;;;;;6.18;64.66;101810.41;5058043;28;20049;-66
2022/12/05 08:01:45;;;;;;;24.80;15.85;;;;;;;6.13;65.29;101814.56;5059759;28;20045;-65
2022/12/05 08:04:12;;;;;;;24.80;14.95;;;;;;;6.12;65.38;101810.25;5055450;28;20057;-65
2022/12/05 08:06:43;;;;;;;29.75;17.25;;;;;;;6.12;65.36;101816.41;5052587;28;20116;-65
2022/12/05 08:09:12;;;;;;;29.42;16.27;;;;;;;6.13;65.61;101812.75;5061062;28;20059;-67
2022/12/05 08:11:40;;;;;;;29.45;17.30;;;;;;;6.12;65.74;101811.06;5054384;28;20045;-66
2022/12/05 08:14:07;;;;;;;30.92;16.63;;;;;;;6.12;65.56;101819.06;5051841;28;20057;-66
2022/12/05 08:16:35;;;;;;;27.35;15.15;;;;;;;6.13;65.91;101825.25;5052747;28;20050;-66
2022/12/05 08:19:05;;;;;;;26.45;14.82;;;;;;;6.10;65.71;101829.09;5058899;28;20048;-66
2022/12/05 08:21:33;;;;;;;25.55;15.77;;;;;;;6.11;65.78;101827.25;5048884;28;20051;-66
2022/12/05 08:24:04;;;;;;;26.90;16.10;;;;;;;6.11;65.76;101837.94;5056566;28;20057;-66
2022/12/05 08:26:35;;;;;;;29.02;15.77;;;;;;;6.10;65.82;101830.91;5060709;28;20271;-66
2022/12/05 08:29:06;;;;;;;25.50;14.57;;;;;;;6.11;65.67;101837.94;5052282;28;20065;-66
2022/12/05 08:31:36;;;;;;;28.10;15.68;;;;;;;6.07;65.81;101836.59;5052167;28;20055;-66
2022/12/05 08:34:04;;;;;;;28.67;16.20;;;;;;;6.10;65.69;101844.25;5061046;28;20545;-66
2022/12/05 08:36:32;;;;;;;25.63;15.23;;;;;;;6.05;65.73;101839.44;5054482;28;20053;-67
2022/12/05 08:39:02;;;;;;;25.13;14.80;;;;;;;6.06;65.94;101835.75;5059385;28;20494;-66
2022/12/05 08:41:30;;;;;;;22.55;13.98;;;;;;;6.10;65.79;101852.28;5057188;28;20121;-67
2022/12/05 08:44:02;;;;;;;22.20;14.20;;;;;;;6.10;65.74;101845.09;5058665;28;20053;-65
2022/12/05 08:46:30;;;;;;;22.50;14.02;;;;;;;6.10;65.47;101844.25;5052858;28;20152;-65
2022/12/05 08:48:58;;;;;;;22.50;13.98;;;;;;;6.20;65.27;101850.25;5059600;28;20483;-65
2022/12/05 08:51:26;;;;;;;21.40;13.68;;;;;;;6.33;65.12;101844.41;5056455;28;20061;-65
2022/12/05 08:53:55;;;;;;;21.08;13.07;;;;;;;6.43;64.29;101837.03;5061711;28;20064;-65
2022/12/05 08:56:24;;;;;;;21.45;13.75;;;;;;;6.73;63.89;101846.16;5047266;28;20045;-65
2022/12/05 08:58:56;;;;;;;27.58;13.98;;;;;;;6.97;62.77;101851.38;5055372;28;20088;-64
2022/12/05 09:01:37;;;;;;;21.45;13.23;;;;;;;7.19;62.42;101855.94;5059343;28;20068;-64
2022/12/05 09:04:06;;;;;;;22.40;13.93;;;;;;;7.36;61.88;101854.00;5046442;28;20037;-64
2022/12/05 09:06:34;;;;;;;23.63;14.35;;;;;;;7.49;61.70;101862.28;5061096;28;20063;-64
2022/12/05 09:09:05;;;;;;;20.40;12.88;;;;;;;7.66;61.28;101856.84;5060217;28;20040;-65
2022/12/05 09:11:35;;;;;;;33.13;13.40;;;;;;;7.80;60.58;101856.91;5054126;28;20515;-66
2022/12/05 09:14:05;;;;;;;43.53;15.43;;;;;;;7.93;60.59;101861.66;5048760;28;20234;-64
2022/12/05 09:16:36;;;;;;;39.05;14.77;;;;;;;8.08;59.38;101864.38;5062681;28;20061;-65
2022/12/05 09:19:10;;;;;;;49.30;13.52;;;;;;;8.12;59.53;101861.16;5060128;28;20049;-62
2022/12/05 09:21:38;;;;;;;37.17;13.75;;;;;;;8.17;59.04;101865.97;5048553;28;20045;-63
2022/12/05 09:24:06;;;;;;;29.85;13.68;;;;;;;8.18;59.32;101867.63;5046982;28;20060;-65
2022/12/05 09:26:34;;;;;;;34.65;13.40;;;;;;;8.21;58.78;101874.47;5061268;28;20311;-62
2022/12/05 09:29:02;;;;;;;22.88;11.65;;;;;;;8.14;58.93;101864.47;5058416;28;20084;-65
2022/12/05 09:31:30;;;;;;;23.60;12.00;;;;;;;8.17;58.98;101874.00;5057430;28;20045;-61
2022/12/05 09:34:00;;;;;;;28.42;14.00;;;;;;;8.14;58.51;101885.06;5055777;28;20049;-64
2022/12/05 09:36:29;;;;;;;24.05;11.55;;;;;;;8.11;59.06;101878.22;5041118;28;20057;-62
2022/12/05 09:39:02;;;;;;;23.45;11.75;;;;;;;8.14;58.92;101883.22;5048170;28;20059;-61
2022/12/05 09:42:07;;;;;;;23.58;12.55;;;;;;;8.16;58.84;101881.19;5048308;28;20133;-61
2022/12/05 09:44:43;;;;;;;20.17;11.85;;;;;;;8.16;59.14;101883.88;5042006;28;20109;-61
2022/12/05 09:47:20;;;;;;;24.50;12.45;;;;;;;8.18;58.91;101889.06;5057603;28;20191;-60
2022/12/05 09:49:56;;;;;;;19.60;10.93;;;;;;;8.20;58.99;101889.69;5051921;28;20045;-61
2022/12/05 09:52:27;;;;;;;18.88;10.85;;;;;;;8.22;58.84;101887.69;5059865;28;20112;-61
2022/12/05 09:54:55;;;;;;;18.42;10.85;;;;;;;8.25;59.41;101890.00;5041593;28;20156;-61
2022/12/05 09:57:32;;;;;;;20.42;11.55;;;;;;;8.16;58.56;101872.34;5050067;28;20425;-62
2022/12/05 10:00:02;;;;;;;15.63;10.15;;;;;;;8.26;58.87;101883.63;5058229;28;20150;-61
2022/12/05 10:02:42;;;;;;;16.85;10.27;;;;;;;8.24;58.97;101887.50;5059864;28;20041;-62
2022/12/05 10:05:18;;;;;;;17.92;10.73;;;;;;;8.26;58.77;101877.44;5054792;28;20154;-62
2022/12/05 10:07:57;;;;;;;20.40;10.88;;;;;;;8.26;58.88;101880.94;5060032;28;20112;-62
2022/12/05 10:10:32;;;;;;;18.67;10.85;;;;;;;8.29;58.24;101883.25;5049440;28;20049;-64
2022/12/05 10:13:16;;;;;;;15.15;9.82;;;;;;;8.31;58.76;101883.91;5056906;28;20071;-66
2022/12/05 10:15:48;;;;;;;15.18;10.18;;;;;;;8.31;58.38;101886.59;5055062;28;20116;-67
2022/12/05 10:18:32;;;;;;;18.83;10.13;;;;;;;8.21;58.98;101885.19;5047655;28;20049;-67
2022/12/05 10:21:12;;;;;;;17.25;10.63;;;;;;;8.04;59.81;101881.81;5051280;28;20057;-67
2022/12/05 10:23:51;;;;;;;17.52;10.82;;;;;;;7.87;60.03;101883.78;5059089;28;20750;-67
2022/12/05 10:26:30;;;;;;;17.88;11.07;;;;;;;7.69;60.22;101886.75;5062694;28;20207;-67
2022/12/05 10:29:07;;;;;;;17.40;11.02;;;;;;;7.55;61.13;101878.63;5054679;28;20049;-67
2022/12/05 10:31:37;;;;;;;17.48;10.43;;;;;;;7.48;61.11;101889.22;5056318;28;20080;-66
2022/12/05 10:34:14;;;;;;;16.10;10.32;;;;;;;7.43;61.65;101889.75;5056412;28;20410;-63
2022/12/05 10:36:55;;;;;;;16.50;10.98;;;;;;;7.51;61.52;101887.03;5056046;28;20132;-67
2022/12/05 10:39:23;;;;;;;14.57;9.82;;;;;;;7.62;60.74;101888.47;5063737;28;20072;-67
2022/12/05 10:41:50;;;;;;;18.60;10.48;;;;;;;7.77;60.48;101883.19;5059345;28;20471;-66
2022/12/05 10:44:18;;;;;;;16.33;10.82;;;;;;;7.91;60.12;101884.25;5058530;28;20096;-67
2022/12/05 10:46:46;;;;;;;16.95;10.18;;;;;;;8.09;59.83;101887.44;5053002;28;20068;-67
2022/12/05 10:49:14;;;;;;;14.50;10.02;;;;;;;8.23;59.59;101883.16;5062843;28;20098;-66
2022/12/05 10:51:44;;;;;;;16.50;9.82;;;;;;;8.26;59.79;101886.31;5058128;28;20045;-66
2022/12/05 10:54:20;;;;;;;15.95;10.15;;;;;;;8.21;59.53;101896.72;5059454;28;20155;-65
2022/12/05 10:56:49;;;;;;;15.27;10.18;;;;;;;8.04;59.32;101882.63;5060480;28;20082;-67
2022/12/05 10:59:19;;;;;;;17.55;10.55;;;;;;;7.89;60.66;101888.94;5057182;28;20041;-66
2022/12/05 11:01:51;;;;;;;15.73;9.77;;;;;;;7.74;60.68;101881.69;5041321;28;20049;-66
2022/12/05 11:04:26;;;;;;;17.88;10.07;;;;;;;7.63;60.89;101889.28;5053750;28;20049;-67
2022/12/05 11:06:59;;;;;;;15.88;9.48;;;;;;;7.54;61.47;101883.16;5048706;28;20045;-67
2022/12/05 11:09:29;;;;;;;15.82;9.15;;;;;;;7.45;61.72;101877.03;5057191;28;20045;-67
2022/12/05 11:12:02;;;;;;;14.98;9.05;;;;;;;7.39;61.94;101876.91;5053171;28;20561;-66
2022/12/05 11:14:32;;;;;;;17.58;10.13;;;;;;;7.34;62.02;101881.94;5058628;28;20068;-65
2022/12/05 11:17:01;;;;;;;16.30;10.02;;;;;;;7.27;62.18;101879.13;5049621;28;20127;-67
2022/12/05 11:19:31;;;;;;;14.57;9.15;;;;;;;7.25;62.18;101878.47;5053858;28;20128;-67
2022/12/05 11:22:02;;;;;;;14.82;9.80;;;;;;;7.20;62.14;101886.19;5059501;28;20091;-67
2022/12/05 11:24:31;;;;;;;13.95;9.68;;;;;;;7.16;62.54;101882.19;5062328;28;20044;-67
2022/12/05 11:27:00;;;;;;;15.02;9.27;;;;;;;7.12;62.85;101884.38;5051629;28;20044;-67
2022/12/05 11:29:35;;;;;;;14.85;9.63;;;;;;;7.10;63.02;101883.72;5056614;28;20052;-67
2022/12/05 11:32:05;;;;;;;13.27;8.73;;;;;;;7.07;62.96;101880.56;5058329;28;20084;-67
2022/12/05 11:34:37;;;;;;;13.70;8.63;;;;;;;7.05;63.16;101882.56;5056587;28;20077;-67
2022/12/05 11:37:12;;;;;;;18.00;9.38;;;;;;;7.17;62.56;101884.69;5052420;28;20055;-67
2022/12/05 11:39:40;;;;;;;12.38;8.68;;;;;;;7.28;62.02;101879.97;5056154;28;20613;-67
2022/12/05 11:42:31;;;;;;;12.40;8.07;;;;;;;7.43;62.23;101876.38;5058486;28;20414;-68
2022/12/05 11:45:17;;;;;;;14.10;8.45;;;;;;;7.61;61.26;101876.09;5051231;28;20049;-68